Time;durP1;ratioP1;P1;durP2;ratioP2;P2;SDS_P1;SDS_P2;PMS_P1;PMS_P2;Temp;Humidity;BMP_temperature;BMP_pressure;BME280_temperature;BME280_humidity;BME280_pressure;Samples;Min_cycle;Max_cycle;Signal;HPM_P1;HPM_P2
2021/01/07 00:02:22;;;;;;;29.45;18.70;;;3.50;95.60;;;;;;5087307;28;19915;-68
2021/01/07 00:04:47;;;;;;;;;;;3.50;95.80;;;;;;5087358;28;20113;-68
2021/01/07 00:07:13;;;;;;;26.95;15.73;;;3.60;95.90;;;;;;5087108;28;19961;-68
2021/01/07 00:09:38;;;;;;;;;;;3.60;96.10;;;;;;5087122;28;20563;-68
2021/01/07 00:12:04;;;;;;;29.98;17.40;;;3.60;96.00;;;;;;5087168;28;19908;-67
2021/01/07 00:14:30;;;;;;;;;;;3.70;96.00;;;;;;5087009;28;20040;-68
2021/01/07 00:16:55;;;;;;;26.95;15.43;;;3.60;95.80;;;;;;5087037;28;19908;-68
2021/01/07 00:19:21;;;;;;;;;;;3.70;95.90;;;;;;5087409;28;20507;-68
2021/01/07 00:21:46;;;;;;;32.10;21.00;;;3.70;95.80;;;;;;5086543;28;19912;-67
2021/01/07 00:24:12;;;;;;;;;;;3.70;95.80;;;;;;5086960;28;20061;-67
2021/01/07 00:26:37;;;;;;;29.80;18.67;;;3.70;95.90;;;;;;5086630;28;19927;-68
2021/01/07 00:29:03;;;;;;;;;;;3.60;95.70;;;;;;5087088;28;20017;-68
2021/01/07 00:31:29;;;;;;;30.20;17.25;;;3.70;95.80;;;;;;5087065;28;20268;-67
2021/01/07 00:33:55;;;;;;;;;;;3.70;95.80;;;;;;5068588;28;20055;-68
2021/01/07 00:36:20;;;;;;;25.05;15.52;;;3.70;95.90;;;;;;5086865;28;19904;-68
2021/01/07 00:38:46;;;;;;;;;;;3.70;95.90;;;;;;5086543;28;20083;-68
2021/01/07 00:41:19;;;;;;;30.73;19.38;;;3.70;95.90;;;;;;5086275;28;19911;-67
2021/01/07 00:43:47;;;;;;;35.60;20.42;;;3.70;95.90;;;;;;5086313;28;20032;-66
2021/01/07 00:46:12;;;;;;;33.47;19.92;;;3.70;95.70;;;;;;5086681;28;20055;-68
2021/01/07 00:48:38;;;;;;;;;;;3.70;95.50;;;;;;5087127;28;20063;-68
2021/01/07 00:51:06;;;;;;;35.20;19.10;;;3.70;95.40;;;;;;5086241;28;20331;-68
2021/01/07 00:53:31;;;;;;;30.80;17.92;;;3.70;95.50;;;;;;5085715;28;20031;-68
2021/01/07 00:55:57;;;;;;;;;;;3.70;95.60;;;;;;5086671;28;20040;-67
2021/01/07 00:58:22;;;;;;;27.02;17.33;;;3.70;95.70;;;;;;5086556;28;19908;-68
2021/01/07 01:00:48;;;;;;;;;;;3.70;95.70;;;;;;5087031;28;20430;-67
2021/01/07 01:03:13;;;;;;;32.97;19.77;;;3.70;95.80;;;;;;5085796;28;19915;-68
2021/01/07 01:05:39;;;;;;;;;;;3.70;95.80;;;;;;5086247;28;20052;-68
2021/01/07 01:08:06;;;;;;;40.67;23.25;;;3.80;95.70;;;;;;5086036;28;19985;-68
2021/01/07 01:10:32;;;;;;;39.85;24.77;;;3.80;95.60;;;;;;5086327;28;20046;-68
2021/01/07 01:12:58;;;;;;;;;;;3.80;95.50;;;;;;5086607;28;20476;-68
2021/01/07 01:15:24;;;;;;;39.67;23.98;;;3.80;95.40;;;;;;5068039;28;19954;-68
2021/01/07 01:17:49;;;;;;;;;;;3.80;95.40;;;;;;5086307;28;20024;-68
2021/01/07 01:20:15;;;;;;;73.97;48.92;;;3.80;95.40;;;;;;5086274;28;19908;-68
2021/01/07 01:22:41;;;;;;;;;;;3.80;95.50;;;;;;5086778;28;20123;-68
2021/01/07 01:25:08;;;;;;;40.40;24.90;;;3.80;95.60;;;;;;5085321;28;19990;-68
2021/01/07 01:27:44;;;;;;;36.42;24.85;;;3.80;95.70;;;;;;5086058;28;20048;-68
2021/01/07 01:30:12;;;;;;;40.20;25.02;;;3.80;95.80;;;;;;5085780;28;20489;-68
2021/01/07 01:32:39;;;;;;;35.60;23.40;;;3.80;95.90;;;;;;5086279;28;20034;-68
2021/01/07 01:35:06;;;;;;;34.45;21.63;;;3.80;96.00;;;;;;5085769;28;20051;-68
2021/01/07 01:37:34;;;;;;;29.20;19.25;;;3.90;96.00;;;;;;5086205;28;20034;-68
2021/01/07 01:40:00;;;;;;;33.35;20.40;;;3.90;96.00;;;;;;5085781;28;20035;-68
2021/01/07 01:42:26;;;;;;;;;;;3.90;96.10;;;;;;5086157;28;20028;-68
2021/01/07 01:44:53;;;;;;;34.92;20.75;;;3.90;96.00;;;;;;5086039;28;19908;-67
2021/01/07 01:47:19;;;;;;;31.52;19.45;;;3.90;96.00;;;;;;5067383;28;20171;-68
2021/01/07 01:49:50;;;;;;;38.63;22.40;;;3.90;96.00;;;;;;5067499;28;20031;-67
2021/01/07 01:52:18;;;;;;;40.30;23.15;;;3.90;96.20;;;;;;5085614;28;20016;-68
2021/01/07 01:54:44;;;;;;;36.53;19.15;;;3.90;95.90;;;;;;5085579;28;20043;-69
2021/01/07 01:57:13;;;;;;;65.68;23.67;;;4.00;96.00;;;;;;5085975;28;20024;-68
2021/01/07 01:59:39;;;;;;;78.15;26.25;;;4.00;96.00;;;;;;5085761;28;20101;-67
2021/01/07 02:02:08;;;;;;;;;;;4.00;96.00;;;;;;5089479;28;20733;-68
2021/01/07 02:04:34;;;;;;;94.88;28.77;;;4.00;96.00;;;;;;5089193;28;19957;-69
2021/01/07 02:07:02;;;;;;;116.15;28.42;;;3.90;96.00;;;;;;5089649;28;20040;-68
2021/01/07 02:09:29;;;;;;;56.25;26.35;;;3.90;96.00;;;;;;5088936;28;20020;-69
2021/01/07 02:11:58;;;;;;;58.50;28.55;;;3.90;96.00;;;;;;5089372;28;20024;-68
2021/01/07 02:14:24;;;;;;;57.42;27.63;;;4.00;96.10;;;;;;5089407;28;20089;-68
2021/01/07 02:16:49;;;;;;;;;;;3.90;96.10;;;;;;5089536;28;20024;-69
2021/01/07 02:19:15;;;;;;;46.88;25.35;;;4.00;96.20;;;;;;5089220;28;20397;-68
2021/01/07 02:21:40;;;;;;;;;;;3.90;96.20;;;;;;5089383;28;20032;-69
2021/01/07 02:24:07;;;;;;;44.65;22.35;;;3.90;96.10;;;;;;5088983;28;20531;-69
2021/01/07 02:26:34;;;;;;;44.15;23.27;;;3.90;96.20;;;;;;5089113;28;20439;-69
2021/01/07 02:29:00;;;;;;;38.95;23.05;;;3.90;96.20;;;;;;5088962;28;20496;-68
2021/01/07 02:31:26;;;;;;;46.80;24.80;;;4.00;96.20;;;;;;5070495;28;20020;-68
2021/01/07 02:33:51;;;;;;;;;;;4.00;96.10;;;;;;5071175;28;20117;-68
2021/01/07 02:36:17;;;;;;;49.47;26.20;;;4.00;96.10;;;;;;5070779;28;19915;-67
2021/01/07 02:38:43;;;;;;;;;;;4.00;96.10;;;;;;5088760;28;20036;-67
2021/01/07 02:41:09;;;;;;;41.42;23.17;;;4.00;95.90;;;;;;5088868;28;19934;-67
2021/01/07 02:43:36;;;;;;;;;;;4.00;95.70;;;;;;5088753;28;20028;-67
2021/01/07 02:46:02;;;;;;;35.75;19.45;;;4.00;95.60;;;;;;5088427;28;19915;-68
2021/01/07 02:48:27;;;;;;;;;;;4.00;95.50;;;;;;5089193;28;20024;-68
2021/01/07 02:50:53;;;;;;;28.23;17.40;;;3.90;95.20;;;;;;5088222;28;19908;-67
2021/01/07 02:53:19;;;;;;;;;;;3.90;95.20;;;;;;5087793;28;20115;-68
2021/01/07 02:55:44;;;;;;;28.45;14.77;;;3.90;95.20;;;;;;5070713;28;20010;-68
2021/01/07 02:58:10;;;;;;;;;;;3.80;95.20;;;;;;5070890;28;20379;-67
2021/01/07 03:00:35;;;;;;;22.50;12.77;;;3.80;95.20;;;;;;5070144;28;19911;-68
2021/01/07 03:03:01;;;;;;;;;;;3.80;95.20;;;;;;5088724;28;20028;-69
2021/01/07 03:05:26;;;;;;;22.70;14.07;;;3.80;95.20;;;;;;5088402;28;20346;-68
2021/01/07 03:07:52;;;;;;;;;;;3.80;95.20;;;;;;5088555;28;20023;-68
2021/01/07 03:10:17;;;;;;;18.70;12.50;;;3.80;95.10;;;;;;5088231;28;20380;-67
2021/01/07 03:12:43;;;;;;;;;;;3.80;95.00;;;;;;5069319;28;20549;-68
2021/01/07 03:15:09;;;;;;;21.33;12.05;;;3.80;94.80;;;;;;5087854;28;20295;-68
2021/01/07 03:17:34;;;;;;;;;;;3.70;94.70;;;;;;5088599;28;20103;-69
2021/01/07 03:20:00;;;;;;;15.13;9.10;;;3.70;94.50;;;;;;5069961;28;19915;-68
2021/01/07 03:22:26;;;;;;;;;;;3.70;94.30;;;;;;5069813;28;20403;-68
2021/01/07 03:24:51;;;;;;;10.32;6.93;;;3.70;94.20;;;;;;5087444;28;19918;-67
2021/01/07 03:27:17;;;;;;;;;;;3.60;94.30;;;;;;5088249;28;20056;-68
2021/01/07 03:29:42;;;;;;;11.27;6.93;;;3.50;94.10;;;;;;5087702;28;20285;-68
2021/01/07 03:32:08;;;;;;;;;;;3.50;94.20;;;;;;5069975;28;20557;-68
2021/01/07 03:34:34;;;;;;;11.10;6.70;;;3.40;94.10;;;;;;5087410;28;19916;-68
2021/01/07 03:36:59;;;;;;;;;;;3.40;94.20;;;;;;5087542;28;20032;-68
2021/01/07 03:39:26;;;;;;;10.05;6.45;;;3.40;94.20;;;;;;5087155;28;19923;-67
2021/01/07 03:41:52;;;;;;;8.82;5.55;;;3.30;94.20;;;;;;5087783;28;20099;-68
2021/01/07 03:44:18;;;;;;;;;;;3.30;94.20;;;;;;5088168;28;20111;-67
2021/01/07 03:46:44;;;;;;;9.23;4.57;;;3.30;94.00;;;;;;5087351;28;19995;-68
2021/01/07 03:49:09;;;;;;;;;;;3.30;93.90;;;;;;5088069;28;20119;-68
2021/01/07 03:51:35;;;;;;;6.80;3.53;;;3.30;94.00;;;;;;5086958;28;19904;-69
2021/01/07 03:54:01;;;;;;;;;;;3.20;93.70;;;;;;5069893;28;20036;-68
2021/01/07 03:56:26;;;;;;;9.25;4.00;;;3.10;93.70;;;;;;5087408;28;19904;-68
2021/01/07 03:58:52;;;;;;;;;;;3.10;93.80;;;;;;5069707;28;20034;-68
2021/01/07 04:01:17;;;;;;;7.45;4.07;;;3.10;94.00;;;;;;5068486;28;19911;-68
2021/01/07 04:03:43;;;;;;;;;;;3.00;93.70;;;;;;5087833;28;20028;-68
2021/01/07 04:06:09;;;;;;;28.40;13.18;;;3.00;93.60;;;;;;5086900;28;20398;-68
2021/01/07 04:08:36;;;;;;;;;;;2.90;93.30;;;;;;5087275;28;20123;-68
2021/01/07 04:11:02;;;;;;;12.05;4.93;;;2.90;93.30;;;;;;5087108;28;19908;-68
2021/01/07 04:13:28;;;;;;;8.82;5.00;;;2.80;93.30;;;;;;5086654;28;20038;-69
2021/01/07 04:15:54;;;;;;;13.65;6.55;;;2.70;93.50;;;;;;5087135;28;20036;-66
2021/01/07 04:18:20;;;;;;;;;;;2.60;93.40;;;;;;5087480;28;20024;-68
2021/01/07 04:20:45;;;;;;;20.52;9.40;;;2.60;93.10;;;;;;5086623;28;20306;-68
2021/01/07 04:23:11;;;;;;;;;;;2.60;93.00;;;;;;5086666;28;20039;-69
2021/01/07 04:25:37;;;;;;;17.42;9.93;;;2.50;92.80;;;;;;5086490;28;19912;-68
2021/01/07 04:28:02;;;;;;;;;;;2.40;92.50;;;;;;5087285;28;20044;-66
2021/01/07 04:30:28;;;;;;;14.73;8.73;;;2.40;92.40;;;;;;5086455;28;20360;-68
2021/01/07 04:32:54;;;;;;;;;;;2.40;91.80;;;;;;5086944;28;20039;-69
2021/01/07 04:35:20;;;;;;;13.70;7.38;;;2.30;91.90;;;;;;5086565;28;20391;-68
2021/01/07 04:37:45;;;;;;;;;;;2.30;92.00;;;;;;5086746;28;20032;-68
2021/01/07 04:40:12;;;;;;;14.63;8.57;;;2.20;92.10;;;;;;5086694;28;20368;-68
2021/01/07 04:42:37;;;;;;;17.42;9.60;;;2.20;92.30;;;;;;5086257;28;20097;-68
2021/01/07 04:45:03;;;;;;;;;;;2.20;92.40;;;;;;5086703;28;20485;-68
2021/01/07 04:47:29;;;;;;;29.05;14.95;;;2.10;92.50;;;;;;5086237;28;19954;-68
2021/01/07 04:49:54;;;;;;;;;;;2.10;92.50;;;;;;5086788;28;20024;-68
2021/01/07 04:52:21;;;;;;;20.88;11.82;;;2.00;92.60;;;;;;5085789;28;19908;-68
2021/01/07 04:54:47;;;;;;;19.55;10.88;;;2.00;92.80;;;;;;5068301;28;20688;-68
2021/01/07 04:57:13;;;;;;;16.83;10.60;;;1.90;93.00;;;;;;5086027;28;20806;-67
2021/01/07 04:59:38;;;;;;;;;;;1.90;93.20;;;;;;5086783;28;20024;-67
2021/01/07 05:02:04;;;;;;;13.93;8.73;;;1.80;93.30;;;;;;5086156;28;20532;-68
2021/01/07 05:04:30;;;;;;;16.55;10.23;;;1.70;93.20;;;;;;5086430;28;20028;-67
2021/01/07 05:06:58;;;;;;;;;;;1.70;93.30;;;;;;5086325;28;20089;-68
2021/01/07 05:09:23;;;;;;;16.98;10.73;;;1.70;93.10;;;;;;5086309;28;19965;-68
2021/01/07 05:11:49;;;;;;;;;;;1.60;92.90;;;;;;5086438;28;20044;-68
2021/01/07 05:14:15;;;;;;;23.00;13.43;;;1.50;93.10;;;;;;5086262;28;20015;-68
2021/01/07 05:16:40;;;;;;;;;;;1.40;93.20;;;;;;5086304;28;20059;-68
2021/01/07 05:19:07;;;;;;;20.80;12.20;;;1.40;93.30;;;;;;5086272;28;19984;-69
2021/01/07 05:21:34;;;;;;;19.27;12.40;;;1.40;93.40;;;;;;5085522;28;20036;-67
2021/01/07 05:24:01;;;;;;;32.92;18.63;;;1.30;93.50;;;;;;5085708;28;20107;-67
2021/01/07 05:26:27;;;;;;;25.17;14.95;;;1.30;93.60;;;;;;5086161;28;20059;-68
2021/01/07 05:28:57;;;;;;;;;;;1.20;93.70;;;;;;5068355;28;20032;-67
2021/01/07 05:31:27;;;;;;;16.55;10.88;;;1.20;93.80;;;;;;5085703;28;19908;-68
2021/01/07 05:33:54;;;;;;;22.13;13.38;;;1.10;93.70;;;;;;5067435;28;20024;-67
2021/01/07 05:36:28;;;;;;;21.13;13.77;;;1.10;93.70;;;;;;5087988;28;20518;-68
2021/01/07 05:39:03;;;;;;;24.60;15.07;;;1.10;93.50;;;;;;5090086;28;20528;-68
2021/01/07 05:41:30;;;;;;;22.52;14.52;;;1.00;93.50;;;;;;5071573;28;20028;-68
2021/01/07 05:43:58;;;;;;;22.73;15.07;;;1.00;93.60;;;;;;5089719;28;20043;-67
2021/01/07 05:46:24;;;;;;;26.85;15.63;;;1.00;93.60;;;;;;5071730;28;20027;-68
2021/01/07 05:48:54;;;;;;;32.33;18.00;;;1.00;93.70;;;;;;5090029;28;20024;-68
2021/01/07 05:51:24;;;;;;;23.80;14.75;;;0.90;93.80;;;;;;5089292;28;20096;-68
2021/01/07 05:53:55;;;;;;;27.95;17.13;;;0.90;93.80;;;;;;5089382;28;20526;-68
2021/01/07 05:56:21;;;;;;;29.73;19.00;;;0.90;93.90;;;;;;5089712;28;20070;-68
2021/01/07 05:58:48;;;;;;;26.35;15.95;;;0.90;93.90;;;;;;5089859;28;20024;-68
2021/01/07 06:01:19;;;;;;;29.00;18.65;;;0.90;94.00;;;;;;5089050;28;20016;-66
2021/01/07 06:03:47;;;;;;;25.48;16.83;;;0.90;94.00;;;;;;5089243;28;20486;-68
2021/01/07 06:06:18;;;;;;;29.27;17.85;;;0.90;94.00;;;;;;5089186;28;20037;-68
2021/01/07 06:08:55;;;;;;;30.20;17.83;;;0.80;94.00;;;;;;5089349;28;20024;-68
2021/01/07 06:11:23;;;;;;;21.25;14.15;;;0.80;93.90;;;;;;5089432;28;20046;-67
2021/01/07 06:13:51;;;;;;;19.42;12.80;;;0.80;93.80;;;;;;5088966;28;20470;-68
2021/01/07 06:16:22;;;;;;;17.73;10.98;;;0.80;93.70;;;;;;5089523;28;20634;-67
2021/01/07 06:18:48;;;;;;;15.07;9.63;;;0.80;93.50;;;;;;5089361;28;20103;-68
2021/01/07 06:21:15;;;;;;;18.00;9.50;;;0.80;93.30;;;;;;5088490;28;20115;-68
2021/01/07 06:23:48;;;;;;;14.65;8.45;;;0.80;93.10;;;;;;5089172;28;20035;-68
2021/01/07 06:26:24;;;;;;;16.13;9.38;;;0.80;93.10;;;;;;5088995;28;20051;-67
2021/01/07 06:28:51;;;;;;;12.77;7.93;;;0.80;92.90;;;;;;5088802;28;20038;-68
2021/01/07 06:31:17;;;;;;;11.30;7.57;;;0.90;92.80;;;;;;5088632;28;20032;-68
2021/01/07 06:33:43;;;;;;;;;;;0.90;92.60;;;;;;5089360;28;20089;-68
2021/01/07 06:36:09;;;;;;;13.75;7.15;;;1.00;92.20;;;;;;5088503;28;19904;-68
2021/01/07 06:38:35;;;;;;;12.20;7.07;;;1.00;91.90;;;;;;5070749;28;20198;-67
2021/01/07 06:41:01;;;;;;;;;;;1.10;91.80;;;;;;5089052;28;20110;-68
2021/01/07 06:43:27;;;;;;;12.40;6.40;;;1.10;91.70;;;;;;5088577;28;20346;-68
2021/01/07 06:45:55;;;;;;;11.68;7.57;;;1.10;91.50;;;;;;5088486;28;20036;-68
2021/01/07 06:48:34;;;;;;;14.02;8.27;;;1.20;91.40;;;;;;5088171;28;20016;-68
2021/01/07 06:51:01;;;;;;;14.55;9.00;;;1.10;91.60;;;;;;5088235;28;20077;-68
2021/01/07 06:53:27;;;;;;;15.50;8.88;;;1.10;91.60;;;;;;5088408;28;20527;-69
2021/01/07 06:56:15;;;;;;;15.25;9.70;;;1.10;91.60;;;;;;5088449;28;20556;-66
2021/01/07 06:58:42;;;;;;;16.35;11.02;;;1.10;91.70;;;;;;5088201;28;20484;-68
2021/01/07 07:01:10;;;;;;;15.52;9.50;;;1.10;91.80;;;;;;5088439;28;20027;-68
2021/01/07 07:03:46;;;;;;;16.50;8.90;;;1.10;91.90;;;;;;5088416;28;20028;-70
2021/01/07 07:06:16;;;;;;;14.60;9.48;;;1.10;92.00;;;;;;5087700;28;20060;-67
2021/01/07 07:08:45;;;;;;;14.80;9.77;;;1.10;92.00;;;;;;5088411;28;20510;-68
2021/01/07 07:11:12;;;;;;;16.13;10.18;;;1.20;92.10;;;;;;5087840;28;20016;-67
2021/01/07 07:13:43;;;;;;;17.92;11.00;;;1.30;92.20;;;;;;5087904;28;20074;-68
2021/01/07 07:16:13;;;;;;;18.83;12.65;;;1.40;92.60;;;;;;5088120;28;20031;-69
2021/01/07 07:18:39;;;;;;;25.48;14.23;;;1.60;92.40;;;;;;5088008;28;20032;-68
2021/01/07 07:21:16;;;;;;;;;;;1.90;92.00;;;;;;5070155;28;20043;-68
2021/01/07 07:23:44;;;;;;;19.92;12.65;;;2.10;91.50;;;;;;5087656;28;19908;-68
2021/01/07 07:26:15;;;;;;;18.35;12.50;;;2.30;91.00;;;;;;5087981;28;20055;-68
2021/01/07 07:28:46;;;;;;;17.58;11.57;;;2.60;90.60;;;;;;5087679;28;20032;-68
2021/01/07 07:31:13;;;;;;;19.23;12.18;;;2.70;90.10;;;;;;5087406;28;20028;-68
2021/01/07 07:33:40;;;;;;;19.50;12.35;;;2.60;90.00;;;;;;5070156;28;20494;-68
2021/01/07 07:36:08;;;;;;;17.33;12.40;;;2.50;90.20;;;;;;5087588;28;20028;-68
2021/01/07 07:38:39;;;;;;;18.02;12.05;;;2.50;90.10;;;;;;5087500;28;20035;-67
2021/01/07 07:41:07;;;;;;;18.00;11.98;;;2.50;90.30;;;;;;5069410;28;20507;-67
2021/01/07 07:43:34;;;;;;;17.60;12.50;;;2.50;90.50;;;;;;5087300;28;20043;-68
2021/01/07 07:46:01;;;;;;;18.83;12.70;;;2.60;90.40;;;;;;5087710;28;20027;-67
2021/01/07 07:48:28;;;;;;;18.70;12.65;;;2.60;90.30;;;;;;5087456;28;20024;-66
2021/01/07 07:51:10;;;;;;;18.75;13.75;;;2.60;90.40;;;;;;5087309;28;20020;-66
2021/01/07 07:53:37;;;;;;;20.88;13.77;;;2.60;90.50;;;;;;5087335;28;20039;-67
2021/01/07 07:56:04;;;;;;;19.75;14.13;;;2.60;90.70;;;;;;5069186;28;20047;-66
2021/01/07 07:58:30;;;;;;;20.67;13.60;;;2.60;90.80;;;;;;5086844;28;20114;-66
2021/01/07 08:00:57;;;;;;;;;;;2.70;90.90;;;;;;5087541;28;20058;-66
2021/01/07 08:03:27;;;;;;;19.88;13.23;;;2.70;90.80;;;;;;5087321;28;19943;-67
2021/01/07 08:05:54;;;;;;;17.63;11.70;;;2.70;90.60;;;;;;5086640;28;20123;-67
2021/01/07 08:08:26;;;;;;;19.45;12.95;;;2.60;90.80;;;;;;5087161;28;20027;-67
2021/01/07 08:10:53;;;;;;;18.23;12.02;;;2.70;90.90;;;;;;5087187;28;20043;-67
2021/01/07 08:13:20;;;;;;;17.38;11.30;;;2.70;90.70;;;;;;5068736;28;20024;-67
2021/01/07 08:15:51;;;;;;;17.15;11.75;;;2.70;90.50;;;;;;5087085;28;20020;-66
2021/01/07 08:18:23;;;;;;;19.52;13.18;;;2.70;90.50;;;;;;5086631;28;20039;-66
2021/01/07 08:20:53;;;;;;;17.40;11.45;;;2.70;90.60;;;;;;5086673;28;20058;-67
2021/01/07 08:23:20;;;;;;;14.52;9.93;;;2.80;90.60;;;;;;5068137;28;20035;-66
2021/01/07 08:25:48;;;;;;;13.65;10.20;;;2.80;90.30;;;;;;5086452;28;20054;-66
2021/01/07 08:28:27;;;;;;;15.85;10.77;;;2.90;89.80;;;;;;5086841;28;20044;-66
2021/01/07 08:31:04;;;;;;;16.17;9.88;;;2.90;90.00;;;;;;5068050;28;20036;-66
2021/01/07 08:33:31;;;;;;;10.05;6.32;;;2.90;90.10;;;;;;5085720;28;20515;-66
2021/01/07 08:36:07;;;;;;;9.32;6.13;;;3.10;88.20;;;;;;5086950;28;20081;-66
2021/01/07 08:38:34;;;;;;;9.00;5.28;;;3.20;87.00;;;;;;5068662;28;20058;-67
2021/01/07 08:41:14;;;;;;;5.63;3.45;;;3.20;86.90;;;;;;5086467;28;20024;-66
2021/01/07 08:43:41;;;;;;;5.40;3.42;;;3.20;85.70;;;;;;5068382;28;20047;-66
2021/01/07 08:46:27;;;;;;;6.78;4.40;;;3.20;84.90;;;;;;5086292;28;20032;-67
2021/01/07 08:49:24;;;;;;;6.47;4.07;;;3.20;85.60;;;;;;5068209;28;20032;-66
2021/01/07 08:51:53;;;;;;;5.10;2.83;;;3.20;85.50;;;;;;5086411;28;20475;-66
2021/01/07 08:54:24;;;;;;;5.45;2.90;;;3.30;84.30;;;;;;5086019;28;20085;-67
2021/01/07 08:56:54;;;;;;;3.42;1.83;;;3.30;84.30;;;;;;5086433;28;20441;-66
2021/01/07 08:59:32;;;;;;;3.40;2.30;;;3.30;82.60;;;;;;5086221;28;20077;-68
2021/01/07 09:02:21;;;;;;;3.67;1.80;;;3.40;82.70;;;;;;5086498;28;20024;-67
2021/01/07 09:04:52;;;;;;;2.78;1.45;;;3.30;82.40;;;;;;5086143;28;20050;-66
2021/01/07 09:07:19;;;;;;;3.67;2.13;;;3.40;82.10;;;;;;5085874;28;20557;-66
2021/01/07 09:09:45;;;;;;;3.67;2.05;;;3.50;82.10;;;;;;5085734;28;20427;-66
2021/01/07 09:12:12;;;;;;;;;;;3.60;81.30;;;;;;5086190;28;20496;-67
2021/01/07 09:14:51;;;;;;;2.45;1.40;;;3.80;80.10;;;;;;5086270;28;19961;-66
2021/01/07 09:17:18;;;;;;;3.08;2.00;;;3.90;80.20;;;;;;5086255;28;20028;-66
2021/01/07 09:19:45;;;;;;;4.57;1.70;;;4.00;80.30;;;;;;5085270;28;20067;-66
2021/01/07 09:22:24;;;;;;;3.67;1.80;;;4.10;79.60;;;;;;5086521;28;20032;-66
2021/01/07 09:24:51;;;;;;;3.45;2.13;;;4.20;79.00;;;;;;5085615;28;20423;-67
2021/01/07 09:27:19;;;;;;;4.88;2.80;;;4.10;78.60;;;;;;5067633;28;20462;-67
2021/01/07 09:29:46;;;;;;;4.35;2.75;;;4.20;79.90;;;;;;5085951;28;20127;-67
2021/01/07 09:32:12;;;;;;;5.45;2.70;;;4.30;80.70;;;;;;5086016;28;20417;-67
2021/01/07 09:34:39;;;;;;;5.13;3.10;;;4.30;79.60;;;;;;5085202;28;20036;-67
2021/01/07 09:37:06;;;;;;;3.70;2.58;;;4.40;78.40;;;;;;5086029;28;20032;-67
2021/01/07 09:39:32;;;;;;;3.95;2.63;;;4.40;78.70;;;;;;5085996;28;20892;-67
2021/01/07 09:41:57;;;;;;;;;;;4.40;78.70;;;;;;5086550;28;20035;-67
2021/01/07 09:44:23;;;;;;;4.45;2.60;;;4.40;79.60;;;;;;5067595;28;19904;-67
2021/01/07 09:46:52;;;;;;;;;;;4.40;79.80;;;;;;5068194;28;20024;-67
2021/01/07 09:49:18;;;;;;;3.50;2.22;;;4.50;78.70;;;;;;5085236;28;19908;-67
2021/01/07 09:51:44;;;;;;;;;;;4.50;78.60;;;;;;5068612;28;20028;-67
2021/01/07 09:54:10;;;;;;;4.32;2.30;;;4.50;78.40;;;;;;5085947;28;19916;-67
2021/01/07 09:56:35;;;;;;;;;;;4.40;77.50;;;;;;5067693;28;20024;-67
2021/01/07 09:59:01;;;;;;;3.15;1.80;;;4.40;77.30;;;;;;5085687;28;20010;-67
2021/01/07 10:01:26;;;;;;;;;;;4.40;77.80;;;;;;5086120;28;20039;-67
2021/01/07 10:03:52;;;;;;;2.40;1.48;;;4.30;77.40;;;;;;5085432;28;19908;-67
2021/01/07 10:06:18;;;;;;;;;;;4.10;77.30;;;;;;5086098;28;20020;-67
2021/01/07 10:08:43;;;;;;;3.55;2.13;;;4.00;78.20;;;;;;5084444;28;19916;-67
2021/01/07 10:11:11;;;;;;;;;;;3.90;79.50;;;;;;5085962;28;20028;-67
2021/01/07 10:13:36;;;;;;;3.00;1.55;;;4.00;79.40;;;;;;5067150;28;19911;-67
2021/01/07 10:16:02;;;;;;;;;;;4.00;79.90;;;;;;5086090;28;20036;-67
2021/01/07 10:18:28;;;;;;;2.55;1.73;;;4.10;79.20;;;;;;5067119;28;19908;-67
2021/01/07 10:20:59;;;;;;;;;;;4.20;79.80;;;;;;5067527;28;20024;-67
2021/01/07 10:23:25;;;;;;;2.00;1.27;;;4.30;77.90;;;;;;5088508;28;19908;-67
2021/01/07 10:25:51;;;;;;;;;;;4.30;76.40;;;;;;5089548;28;20032;-67
2021/01/07 10:28:17;;;;;;;2.92;1.75;;;4.40;76.80;;;;;;5089033;28;19908;-67
2021/01/07 10:30:43;;;;;;;3.60;1.55;;;4.50;76.90;;;;;;5088808;28;20552;-65
2021/01/07 10:33:10;;;;;;;2.97;1.60;;;4.60;75.60;;;;;;5070547;28;20127;-67
2021/01/07 10:35:38;;;;;;;2.28;1.20;;;4.70;75.40;;;;;;5088934;28;20115;-66
2021/01/07 10:38:04;;;;;;;3.05;1.30;;;4.90;74.90;;;;;;5089223;28;20036;-66
2021/01/07 10:40:31;;;;;;;;;;;5.00;73.60;;;;;;5070866;28;20059;-67
2021/01/07 10:42:58;;;;;;;2.75;1.52;;;5.00;71.80;;;;;;5088540;28;19916;-68
2021/01/07 10:45:24;;;;;;;1.98;1.00;;;4.80;73.20;;;;;;5088860;28;20035;-69
2021/01/07 10:47:52;;;;;;;;;;;4.80;73.70;;;;;;5088618;28;20054;-68
2021/01/07 10:50:21;;;;;;;2.28;1.02;;;4.60;73.10;;;;;;5088869;28;19918;-68
2021/01/07 10:53:04;;;;;;;2.45;1.08;;;4.50;74.00;;;;;;5088610;28;20036;-67
2021/01/07 10:55:32;;;;;;;2.72;1.50;;;4.50;74.30;;;;;;5088586;28;20040;-67
2021/01/07 10:58:38;;;;;;;2.55;1.25;;;4.50;74.30;;;;;;5070417;28;20412;-68
2021/01/07 11:01:23;;;;;;;3.40;1.58;;;4.60;73.90;;;;;;5070820;28;20057;-68
2021/01/07 11:04:39;;;;;;;3.83;2.03;;;4.50;75.30;;;;;;5088154;28;20454;-68
2021/01/07 11:07:37;;;;;;;2.20;1.17;;;4.60;74.90;;;;;;5005856;28;20034;-69
2021/01/07 11:10:06;;;;;;;2.38;1.27;;;4.60;74.80;;;;;;5005793;28;20187;-69
2021/01/07 11:12:59;;;;;;;2.30;1.17;;;4.60;73.90;;;;;;5070697;28;20497;-68
2021/01/07 11:15:28;;;;;;;2.05;1.13;;;4.50;73.70;;;;;;5087730;28;20509;-68
2021/01/07 11:18:14;;;;;;;3.92;1.60;;;4.60;73.50;;;;;;5069752;28;20105;-68
2021/01/07 11:20:49;;;;;;;4.17;1.40;;;4.60;73.60;;;;;;5088314;28;20031;-68
2021/01/07 11:23:15;;;;;;;4.90;1.58;;;4.60;73.40;;;;;;5087866;28;20032;-68
2021/01/07 11:25:41;;;;;;;2.83;1.42;;;4.60;74.30;;;;;;5087921;28;20081;-68
2021/01/07 11:28:07;;;;;;;;;;;4.60;74.70;;;;;;5070328;28;20614;-68
2021/01/07 11:30:36;;;;;;;4.22;2.22;;;4.70;75.00;;;;;;5087417;28;20326;-68
2021/01/07 11:33:04;;;;;;;3.55;1.80;;;4.80;74.00;;;;;;5068279;28;20050;-69
2021/01/07 11:35:30;;;;;;;2.63;1.83;;;4.80;72.80;;;;;;5087330;28;20072;-68
2021/01/07 11:38:01;;;;;;;4.03;1.77;;;4.80;74.30;;;;;;5087919;28;20500;-68
2021/01/07 11:40:40;;;;;;;2.90;1.70;;;4.80;73.40;;;;;;5087593;28;20024;-68
2021/01/07 11:43:24;;;;;;;4.28;2.47;;;4.80;73.80;;;;;;5087654;28;20028;-67
2021/01/07 11:45:59;;;;;;;2.80;1.67;;;4.70;74.00;;;;;;5087356;28;20032;-68
2021/01/07 11:48:25;;;;;;;2.92;1.83;;;4.70;73.60;;;;;;5087180;28;20111;-67
2021/01/07 11:51:07;;;;;;;3.22;1.90;;;4.80;73.10;;;;;;5087198;28;20652;-66
2021/01/07 11:53:33;;;;;;;3.83;2.13;;;4.80;72.60;;;;;;5087467;28;20024;-67
2021/01/07 11:55:59;;;;;;;;;;;4.70;71.90;;;;;;5087518;28;20040;-68
2021/01/07 11:58:27;;;;;;;3.57;1.90;;;4.80;72.20;;;;;;5087092;28;20581;-67
2021/01/07 12:00:54;;;;;;;3.97;2.47;;;5.00;72.60;;;;;;5087456;28;20111;-67
2021/01/07 12:03:25;;;;;;;3.15;1.70;;;5.10;72.70;;;;;;5068500;28;20023;-68
2021/01/07 12:05:53;;;;;;;3.15;2.03;;;5.30;71.60;;;;;;5087275;28;20024;-67
2021/01/07 12:08:51;;;;;;;2.95;1.67;;;5.40;69.90;;;;;;5069090;28;20035;-68
2021/01/07 12:11:37;;;;;;;2.88;1.83;;;5.50;69.60;;;;;;5069116;28;20040;-68
2021/01/07 12:14:12;;;;;;;2.80;1.52;;;5.60;69.40;;;;;;5087147;28;20476;-68
2021/01/07 12:16:48;;;;;;;4.75;2.25;;;5.60;69.00;;;;;;5068419;28;20039;-69
2021/01/07 12:19:15;;;;;;;3.13;2.00;;;5.70;68.80;;;;;;5086446;28;20027;-68
2021/01/07 12:21:42;;;;;;;3.20;2.00;;;5.80;68.50;;;;;;5086780;28;20622;-68
2021/01/07 12:24:10;;;;;;;3.92;2.17;;;5.80;67.60;;;;;;5086881;28;20028;-68
2021/01/07 12:26:36;;;;;;;3.30;1.80;;;5.70;67.00;;;;;;5086716;28;20051;-68
2021/01/07 12:29:01;;;;;;;;;;;5.60;67.60;;;;;;5086996;28;20028;-68
2021/01/07 12:31:28;;;;;;;3.17;1.65;;;5.50;67.30;;;;;;5085912;28;19918;-68
2021/01/07 12:34:12;;;;;;;4.28;2.30;;;5.30;67.80;;;;;;5068795;28;20093;-68
2021/01/07 12:36:43;;;;;;;6.55;2.42;;;5.30;69.30;;;;;;5086790;28;20302;-68
2021/01/07 12:39:35;;;;;;;4.90;2.75;;;5.10;69.20;;;;;;5086261;28;20032;-68
2021/01/07 12:42:02;;;;;;;4.40;2.30;;;4.90;70.20;;;;;;5075398;28;20062;-68
2021/01/07 12:44:32;;;;;;;11.07;2.60;;;4.80;70.10;;;;;;5086553;28;20507;-68
2021/01/07 12:46:58;;;;;;;4.00;2.20;;;4.70;70.90;;;;;;5085888;28;20036;-68
2021/01/07 12:49:27;;;;;;;;;;;4.70;70.90;;;;;;5086970;28;20503;-68
2021/01/07 12:51:54;;;;;;;36.47;11.27;;;4.60;70.90;;;;;;5086644;28;19908;-67
2021/01/07 12:54:20;;;;;;;30.98;11.68;;;4.60;71.00;;;;;;5086028;28;20088;-68
2021/01/07 12:56:48;;;;;;;;;;;4.60;69.70;;;;;;5086994;28;20024;-68
2021/01/07 12:59:19;;;;;;;13.20;5.10;;;4.70;69.10;;;;;;5085996;28;19914;-68
2021/01/07 13:02:02;;;;;;;7.57;2.28;;;4.70;69.00;;;;;;5086124;28;20020;-68
2021/01/07 13:04:35;;;;;;;5.07;2.28;;;4.70;70.20;;;;;;5086015;28;20032;-67
2021/01/07 13:07:03;;;;;;;6.25;2.50;;;4.90;70.00;;;;;;5086427;28;20027;-68
2021/01/07 13:09:34;;;;;;;5.07;3.22;;;4.90;70.60;;;;;;5086101;28;20558;-68
2021/01/07 13:12:02;;;;;;;4.05;2.33;;;4.90;70.80;;;;;;5086248;28;20063;-68
2021/01/07 13:14:34;;;;;;;3.47;1.90;;;5.00;69.70;;;;;;5085713;28;20060;-68
2021/01/07 13:17:00;;;;;;;4.05;2.00;;;5.00;70.20;;;;;;5085346;28;20028;-68